Details for BMI Regional at EDDM




Go Back


Latest METAR
Local Time

EDDM 221120Z 25007KT 210V290 9999 FEW044 BKN260 15/05 Q1024 NOSIG
22/09/2018, 13:50:32

Description
Results
BMI Regional Logo
Number of Pilots based at EDDM
0 Pilots Based here
Number of BMI Regional Flights Departed from EDDM
0 Flights Departed
Number of BMI Regional Flights Arrived at EDDM
0 Flights Arrived
Number of BMI Regional Schedules Departing from EDDM
21 Schedules
Number of BMI Regional Schedules Arriving at EDDM
23 Schedules
Number of BMI Regional Schedules Departing from EDDM availible today
6 Schedules Today
Number of BMI Regional Schedules Arriving at EDDM availible today
6 Schedules Today
Average Landing Rate at EDDM
-191 fpm
BMI Regional Average Landing Rate at EDDM
0 fpm
Total Fuel Purchased at EDDM by BMI Regional
0.00 kgs / 0.00 lbs

Pilots Based at EDDM


Pilot ID
Pilot Name
Pilot Rank
No. of Flights
No. of Flying Hours
There are no pilots assigned to this hub!   Will you be the first?
Content